createdAt,value
2023-04-28T00:00:04.430Z,46.50
2023-04-28T00:02:32.593Z,46.60
2023-04-28T00:05:02.091Z,46.30
2023-04-28T00:07:29.894Z,46.50
2023-04-28T00:09:57.810Z,46.80
2023-04-28T00:12:25.829Z,46.60
2023-04-28T00:14:54.342Z,46.40
2023-04-28T00:17:22.756Z,46.80
2023-04-28T00:19:51.527Z,46.60
2023-04-28T00:22:20.831Z,46.50
2023-04-28T00:24:48.688Z,46.50
2023-04-28T00:27:16.520Z,46.50
2023-04-28T00:29:44.586Z,46.60
2023-04-28T00:32:13.656Z,46.70
2023-04-28T00:34:41.512Z,46.60
2023-04-28T00:37:09.513Z,46.80
2023-04-28T00:39:38.733Z,46.90
2023-04-28T00:42:06.691Z,46.70
2023-04-28T00:44:34.593Z,46.80
2023-04-28T00:47:02.857Z,46.80
2023-04-28T00:49:31.323Z,46.80
2023-04-28T00:52:03.614Z,46.80
2023-04-28T00:54:31.558Z,46.90
2023-04-28T00:57:03.178Z,46.90
2023-04-28T00:59:31.356Z,47.00
2023-04-28T01:02:01.780Z,47.00
2023-04-28T01:04:30.871Z,47.00
2023-04-28T01:07:00.131Z,47.10
2023-04-28T01:09:30.955Z,47.50
2023-04-28T01:12:00.224Z,47.40
2023-04-28T01:14:28.134Z,47.60
2023-04-28T01:16:57.116Z,47.40
2023-04-28T01:19:25.007Z,47.50
2023-04-28T01:21:53.160Z,47.60
2023-04-28T01:24:22.553Z,47.70
2023-04-28T01:26:50.623Z,47.70
2023-04-28T01:29:18.443Z,47.60
2023-04-28T01:31:46.442Z,47.90
2023-04-28T01:34:14.739Z,47.90
2023-04-28T01:36:42.815Z,47.80
2023-04-28T01:39:10.710Z,47.70
2023-04-28T01:41:40.082Z,47.80
2023-04-28T01:44:07.984Z,47.90
2023-04-28T01:46:36.516Z,47.90
2023-04-28T01:49:04.791Z,48.00
2023-04-28T01:51:32.703Z,47.90
2023-04-28T01:54:00.606Z,48.00
2023-04-28T01:56:28.448Z,48.00
2023-04-28T01:58:57.611Z,48.70
2023-04-28T02:01:25.495Z,48.20
2023-04-28T02:03:55.168Z,48.30
2023-04-28T02:06:26.142Z,48.20
2023-04-28T02:08:53.964Z,48.10
2023-04-28T02:11:21.885Z,48.10
2023-04-28T02:13:50.792Z,48.20
2023-04-28T02:16:20.038Z,48.20
2023-04-28T02:18:47.937Z,48.50
2023-04-28T02:21:16.016Z,48.40
2023-04-28T02:23:43.901Z,48.50
2023-04-28T02:26:11.735Z,48.50
2023-04-28T02:28:39.654Z,48.50
2023-04-28T02:31:08.707Z,48.50
2023-04-28T02:33:38.831Z,48.50
2023-04-28T02:36:07.790Z,48.80
2023-04-28T02:38:35.988Z,48.60
2023-04-28T02:41:05.693Z,48.80
2023-04-28T02:43:34.320Z,49.00
2023-04-28T02:46:03.192Z,48.90
2023-04-28T02:48:31.282Z,49.00
2023-04-28T02:51:00.538Z,48.90
2023-04-28T02:53:28.464Z,49.00
2023-04-28T02:55:56.860Z,49.10
2023-04-28T02:58:24.662Z,49.10
2023-04-28T03:00:52.522Z,49.20
2023-04-28T03:03:20.648Z,49.40
2023-04-28T03:05:48.730Z,49.50
2023-04-28T03:08:17.958Z,49.60
2023-04-28T03:10:45.971Z,49.50
2023-04-28T03:13:13.855Z,49.40
2023-04-28T03:15:41.743Z,49.70
2023-04-28T03:18:09.633Z,49.80
2023-04-28T03:20:37.506Z,49.90
2023-04-28T03:23:05.315Z,49.90
2023-04-28T03:25:34.539Z,50.00
2023-04-28T03:28:02.377Z,50.10
2023-04-28T03:30:30.238Z,49.80
2023-04-28T03:32:58.328Z,50.20
2023-04-28T03:35:26.480Z,50.10
2023-04-28T03:37:54.466Z,50.30
2023-04-28T03:40:22.656Z,50.20
2023-04-28T03:42:51.840Z,50.20
2023-04-28T03:45:19.739Z,50.40
2023-04-28T03:47:47.624Z,50.50
2023-04-28T03:50:15.822Z,50.50
2023-04-28T03:52:43.629Z,50.10
2023-04-28T03:55:11.724Z,51.20
2023-04-28T03:57:39.526Z,50.50
2023-04-28T04:00:10.436Z,50.60
2023-04-28T04:02:38.803Z,50.80
2023-04-28T04:05:07.284Z,50.90
2023-04-28T04:07:35.355Z,50.80
2023-04-28T04:10:04.628Z,51.00
2023-04-28T04:12:32.772Z,51.10
2023-04-28T04:15:00.603Z,51.20
2023-04-28T04:17:29.856Z,51.30
2023-04-28T04:19:57.877Z,51.30
2023-04-28T04:22:25.789Z,51.30
2023-04-28T04:24:53.944Z,51.30
2023-04-28T04:27:21.761Z,51.10
2023-04-28T04:29:49.728Z,52.20
2023-04-28T04:32:17.549Z,52.20
2023-04-28T04:34:46.690Z,51.80
2023-04-28T04:37:14.741Z,51.80
2023-04-28T04:39:42.562Z,51.80
2023-04-28T04:42:23.231Z,52.00
2023-04-28T04:44:52.564Z,52.20
2023-04-28T04:47:20.450Z,52.30
2023-04-28T04:49:50.746Z,52.40
2023-04-28T04:52:18.870Z,52.50
2023-04-28T04:54:46.821Z,52.90
2023-04-28T04:57:14.993Z,53.10
2023-04-28T04:59:42.783Z,53.00
2023-04-28T05:02:10.832Z,53.10
2023-04-28T05:04:38.945Z,53.10
2023-04-28T05:07:08.482Z,53.30
2023-04-28T05:09:36.289Z,53.70
2023-04-28T05:12:04.427Z,53.80
2023-04-28T05:14:32.231Z,53.80
2023-04-28T05:17:00.075Z,53.90
2023-04-28T05:19:28.057Z,54.30
2023-04-28T05:21:55.910Z,54.40
2023-04-28T05:24:25.301Z,54.50
2023-04-28T05:26:54.088Z,54.60
2023-04-28T05:29:22.012Z,54.90
2023-04-28T05:31:50.414Z,55.20
2023-04-28T05:34:18.360Z,55.20
2023-04-28T05:36:46.574Z,55.70
2023-04-28T05:39:14.745Z,56.00
2023-04-28T05:41:43.941Z,56.10
2023-04-28T05:44:11.760Z,56.50
2023-04-28T05:46:39.955Z,56.70
2023-04-28T05:49:07.775Z,57.10
2023-04-28T05:51:35.581Z,57.50
2023-04-28T05:54:03.431Z,57.80
2023-04-28T05:56:31.404Z,58.20
2023-04-28T05:59:04.012Z,58.90
2023-04-28T06:01:32.161Z,59.40
2023-04-28T06:04:00.175Z,59.60
2023-04-28T06:06:28.801Z,60.40
2023-04-28T06:08:57.001Z,61.10
2023-04-28T06:11:24.874Z,61.50
2023-04-28T06:13:52.904Z,62.00
2023-04-28T06:16:23.430Z,62.60
2023-04-28T06:18:51.587Z,62.90
2023-04-28T06:21:21.204Z,62.70
2023-04-28T06:23:49.091Z,63.20
2023-04-28T06:26:18.208Z,63.20
2023-04-28T06:28:46.948Z,63.30
2023-04-28T06:31:15.130Z,63.80
2023-04-28T06:33:44.983Z,64.30
2023-04-28T06:36:17.403Z,65.30
2023-04-28T06:38:46.167Z,65.50
2023-04-28T06:41:14.178Z,65.70
2023-04-28T06:43:42.001Z,66.30
2023-04-28T06:46:10.873Z,66.70
2023-04-28T06:48:38.691Z,67.00
2023-04-28T06:51:07.956Z,67.20
2023-04-28T06:53:35.823Z,67.50
2023-04-28T06:56:04.085Z,68.00
2023-04-28T06:58:31.983Z,68.40
2023-04-28T07:00:59.827Z,68.60
2023-04-28T07:03:28.682Z,69.30
2023-04-28T07:05:56.682Z,69.20
2023-04-28T07:08:25.925Z,69.50
2023-04-28T07:10:53.743Z,70.00
2023-04-28T07:13:21.998Z,70.40
2023-04-28T07:15:50.886Z,71.10
2023-04-28T07:18:18.781Z,71.30
2023-04-28T07:20:46.653Z,71.40
2023-04-28T07:23:14.451Z,72.10
2023-04-28T07:25:44.045Z,72.70
2023-04-28T07:28:14.194Z,72.60
2023-04-28T07:30:42.037Z,73.00
2023-04-28T07:33:09.981Z,72.90
2023-04-28T07:35:37.953Z,72.40
2023-04-28T07:38:06.075Z,72.80
2023-04-28T07:40:34.051Z,74.10
2023-04-28T07:43:03.737Z,73.80
2023-04-28T07:45:31.613Z,74.40
2023-04-28T07:47:59.590Z,73.80
2023-04-28T07:50:28.411Z,74.30
2023-04-28T07:52:56.289Z,74.50
2023-04-28T07:55:24.217Z,74.90
2023-04-28T07:57:52.189Z,75.00
2023-04-28T08:00:21.479Z,74.70
2023-04-28T08:02:49.901Z,75.20
2023-04-28T08:05:18.632Z,77.00
2023-04-28T08:07:46.731Z,75.50
2023-04-28T08:10:15.332Z,75.30
2023-04-28T08:12:45.096Z,75.70
2023-04-28T08:15:14.640Z,75.70
2023-04-28T08:17:45.858Z,73.90
2023-04-28T08:20:15.191Z,76.10
2023-04-28T08:22:43.110Z,76.30
2023-04-28T08:25:11.494Z,76.70
2023-04-28T08:27:40.091Z,77.00
2023-04-28T08:30:09.216Z,77.00
2023-04-28T08:32:37.354Z,77.60
2023-04-28T08:35:07.903Z,77.90
2023-04-28T08:37:35.755Z,78.70
2023-04-28T08:40:09.300Z,79.10
2023-04-28T08:42:38.145Z,79.70
2023-04-28T08:45:06.913Z,80.20
2023-04-28T08:47:38.365Z,80.60
2023-04-28T08:50:09.468Z,80.70
2023-04-28T08:52:37.449Z,81.30
2023-04-28T08:55:08.626Z,81.20
2023-04-28T08:57:40.107Z,82.40
2023-04-28T09:00:10.353Z,81.90
2023-04-28T09:02:38.562Z,81.80
2023-04-28T09:05:10.252Z,81.60
2023-04-28T09:07:38.540Z,82.30
2023-04-28T09:10:20.786Z,81.50
2023-04-28T09:12:52.394Z,82.70
2023-04-28T09:15:33.538Z,81.50
2023-04-28T09:18:02.749Z,82.30
2023-04-28T09:20:33.797Z,81.80
2023-04-28T09:23:16.037Z,82.60
2023-04-28T09:25:57.553Z,83.20
2023-04-28T09:28:25.815Z,85.70
2023-04-28T09:30:54.019Z,84.40
2023-04-28T09:33:22.462Z,84.20
2023-04-28T09:35:51.776Z,84.10
2023-04-28T09:38:21.337Z,84.40
2023-04-28T09:40:58.225Z,84.20
2023-04-28T09:43:27.837Z,85.20
2023-04-28T09:45:56.711Z,85.40
2023-04-28T09:48:32.664Z,84.90
2023-04-28T09:51:03.675Z,85.60
2023-04-28T09:53:31.986Z,85.20
2023-04-28T09:56:02.412Z,85.50
2023-04-28T09:58:32.121Z,86.10
2023-04-28T10:01:01.893Z,86.00
2023-04-28T10:03:31.294Z,86.30
2023-04-28T10:06:02.908Z,86.50
2023-04-28T10:08:30.859Z,86.60
2023-04-28T10:10:59.347Z,86.30
2023-04-28T10:13:27.241Z,86.50
2023-04-28T10:15:58.018Z,86.60
2023-04-28T10:18:26.487Z,86.90
2023-04-28T10:20:59.544Z,86.90
2023-04-28T10:23:56.565Z,87.10
2023-04-28T10:26:35.599Z,87.90
2023-04-28T10:29:03.683Z,87.20
2023-04-28T10:31:31.517Z,86.90
2023-04-28T10:34:29.551Z,87.00
2023-04-28T10:36:59.399Z,88.40
2023-04-28T10:39:28.633Z,86.90
2023-04-28T10:41:56.557Z,87.30
2023-04-28T10:44:43.250Z,86.90
2023-04-28T10:47:11.840Z,88.10
2023-04-28T10:50:11.603Z,87.30
2023-04-28T10:52:50.987Z,88.90
2023-04-28T10:55:32.982Z,88.60
2023-04-28T10:58:32.490Z,89.20
2023-04-28T11:01:28.174Z,88.90
2023-04-28T11:04:03.198Z,89.00
2023-04-28T11:06:34.194Z,87.90
2023-04-28T11:09:04.032Z,88.00
2023-04-28T11:11:34.970Z,88.30
2023-04-28T11:14:31.726Z,88.10
2023-04-28T11:17:01.169Z,88.80
2023-04-28T11:19:30.536Z,87.60
2023-04-28T11:22:00.020Z,87.70
2023-04-28T11:24:30.162Z,87.70
2023-04-28T11:27:00.320Z,87.80
2023-04-28T11:29:39.193Z,88.00
2023-04-28T11:32:09.118Z,89.00
2023-04-28T11:34:38.353Z,88.70
2023-04-28T11:37:08.510Z,89.20
2023-04-28T11:39:37.205Z,89.60
2023-04-28T11:42:11.867Z,89.70
2023-04-28T11:44:40.123Z,90.30
2023-04-28T11:47:08.558Z,89.80
2023-04-28T11:49:44.409Z,89.30
2023-04-28T11:52:13.630Z,89.90
2023-04-28T11:54:43.460Z,88.70
2023-04-28T11:57:20.241Z,88.30
2023-04-28T11:59:49.236Z,87.90
2023-04-28T12:02:25.089Z,88.00
2023-04-28T12:04:53.046Z,87.70
2023-04-28T12:07:21.026Z,87.80
2023-04-28T12:10:10.499Z,88.00
2023-04-28T12:12:49.959Z,88.10
2023-04-28T12:15:20.504Z,87.90
2023-04-28T12:17:50.496Z,88.00
2023-04-28T12:20:37.153Z,87.70
2023-04-28T12:23:05.438Z,89.00
2023-04-28T12:25:34.035Z,88.30
2023-04-28T12:28:04.784Z,88.40
2023-04-28T12:30:34.890Z,89.20
2023-04-28T12:33:02.844Z,88.90
2023-04-28T12:35:31.234Z,88.70
2023-04-28T12:37:59.357Z,88.70
2023-04-28T12:40:27.420Z,88.50
2023-04-28T12:42:55.273Z,88.10
2023-04-28T12:45:24.616Z,87.90
2023-04-28T12:47:52.539Z,88.40
2023-04-28T12:50:20.735Z,88.60
2023-04-28T12:52:48.664Z,88.40
2023-04-28T12:55:16.620Z,89.20
2023-04-28T12:57:44.590Z,89.20
2023-04-28T13:00:16.612Z,89.20
2023-04-28T13:02:46.252Z,89.10
2023-04-28T13:05:14.457Z,89.30
2023-04-28T13:07:42.381Z,88.80
2023-04-28T13:10:10.923Z,88.80
2023-04-28T13:12:38.674Z,89.40
2023-04-28T13:15:08.069Z,89.30
2023-04-28T13:17:35.982Z,89.70
2023-04-28T13:20:06.636Z,89.60
2023-04-28T13:22:34.537Z,90.00
2023-04-28T13:25:02.355Z,89.70
2023-04-28T13:27:30.615Z,89.80
2023-04-28T13:29:59.178Z,90.00
2023-04-28T13:32:28.169Z,89.80
2023-04-28T13:34:56.110Z,89.50
2023-04-28T13:37:25.462Z,89.30
2023-04-28T13:39:53.272Z,89.50
2023-04-28T13:42:21.270Z,89.70
2023-04-28T13:44:49.404Z,89.90
2023-04-28T13:47:17.412Z,89.80
2023-04-28T13:49:45.359Z,90.10
2023-04-28T13:52:14.259Z,89.70
2023-04-28T13:54:44.737Z,90.00
2023-04-28T13:57:13.580Z,90.10
2023-04-28T13:59:41.769Z,90.20
2023-04-28T14:02:11.687Z,90.10
2023-04-28T14:04:39.657Z,89.80
2023-04-28T14:07:09.830Z,90.10
2023-04-28T14:09:37.665Z,90.20
2023-04-28T14:12:07.186Z,90.50
2023-04-28T14:14:36.735Z,90.70
2023-04-28T14:17:05.830Z,90.50
2023-04-28T14:19:33.855Z,90.70
2023-04-28T14:22:02.083Z,90.60
2023-04-28T14:24:29.890Z,90.60
2023-04-28T14:26:57.852Z,90.80
2023-04-28T14:29:27.228Z,90.60
2023-04-28T14:31:55.200Z,90.80
2023-04-28T14:34:24.233Z,90.60
2023-04-28T14:36:52.807Z,91.30
2023-04-28T14:39:20.683Z,91.40
2023-04-28T14:41:48.722Z,91.10
2023-04-28T14:44:16.721Z,90.90
2023-04-28T14:46:45.922Z,91.00
2023-04-28T14:49:14.128Z,90.90
2023-04-28T14:51:42.096Z,90.40
2023-04-28T14:54:10.481Z,90.40
2023-04-28T14:56:38.364Z,90.40
2023-04-28T14:59:06.161Z,90.40
2023-04-28T15:01:33.982Z,90.40
2023-04-28T15:04:04.226Z,90.50
2023-04-28T15:06:33.822Z,90.60
2023-04-28T15:09:01.625Z,90.70
2023-04-28T15:11:29.410Z,90.80
2023-04-28T15:13:57.259Z,90.80
2023-04-28T15:16:25.162Z,90.80
2023-04-28T15:18:52.996Z,90.90
2023-04-28T15:21:23.532Z,91.00
2023-04-28T15:23:51.517Z,91.10
2023-04-28T15:26:19.437Z,91.20
2023-04-28T15:28:47.493Z,91.30
2023-04-28T15:31:16.106Z,91.30
2023-04-28T15:33:44.265Z,90.70
2023-04-28T15:36:13.684Z,91.60
2023-04-28T15:38:43.088Z,91.40
2023-04-28T15:41:11.289Z,91.60
2023-04-28T15:43:39.214Z,91.70
2023-04-28T15:46:09.202Z,91.60
2023-04-28T15:48:38.249Z,91.70
2023-04-28T15:51:06.322Z,91.80
2023-04-28T15:53:34.545Z,91.80
2023-04-28T15:56:05.007Z,91.80
2023-04-28T15:58:32.910Z,91.70
2023-04-28T16:01:00.927Z,91.50
2023-04-28T16:03:28.992Z,91.50
2023-04-28T16:05:57.185Z,91.40
2023-04-28T16:08:25.345Z,91.50
2023-04-28T16:10:53.412Z,91.60
2023-04-28T16:13:23.154Z,91.60
2023-04-28T16:15:51.756Z,91.70
2023-04-28T16:18:19.610Z,91.60
2023-04-28T16:20:47.690Z,91.60
2023-04-28T16:23:15.543Z,91.50
2023-04-28T16:25:43.437Z,91.60
2023-04-28T16:28:11.588Z,91.70
2023-04-28T16:30:40.995Z,91.70
2023-04-28T16:33:09.008Z,91.90
2023-04-28T16:35:37.441Z,91.70
2023-04-28T16:38:05.333Z,91.60
2023-04-28T16:40:33.170Z,91.80
2023-04-28T16:43:00.981Z,91.70
2023-04-28T16:45:29.199Z,91.70
2023-04-28T16:47:58.572Z,91.80
2023-04-28T16:50:26.430Z,91.90
2023-04-28T16:52:54.255Z,91.90
2023-04-28T16:55:22.236Z,91.90
2023-04-28T16:57:50.433Z,91.90
2023-04-28T17:00:19.354Z,91.70
2023-04-28T17:02:47.663Z,91.90
2023-04-28T17:05:17.712Z,91.90
2023-04-28T17:07:46.040Z,91.90
2023-04-28T17:10:14.298Z,91.90
2023-04-28T17:12:45.150Z,91.90
2023-04-28T17:15:17.029Z,92.00
2023-04-28T17:17:45.808Z,92.20
2023-04-28T17:20:16.691Z,92.10
2023-04-28T17:22:45.950Z,92.20
2023-04-28T17:25:14.342Z,92.30
2023-04-28T17:27:42.161Z,92.30
2023-04-28T17:30:13.458Z,92.30
2023-04-28T17:32:41.689Z,92.30
2023-04-28T17:35:10.571Z,92.20
2023-04-28T17:37:38.477Z,92.20
2023-04-28T17:40:09.055Z,92.10
2023-04-28T17:42:37.005Z,92.30
2023-04-28T17:45:07.309Z,92.20
2023-04-28T17:47:36.181Z,92.20
2023-04-28T17:50:04.144Z,92.00
2023-04-28T17:52:32.298Z,91.90
2023-04-28T17:55:00.405Z,91.90
2023-04-28T17:57:29.641Z,91.90
2023-04-28T17:59:57.559Z,91.80
2023-04-28T18:02:25.437Z,91.70
2023-04-28T18:04:53.632Z,91.80
2023-04-28T18:07:21.722Z,91.80
2023-04-28T18:09:49.798Z,91.70
2023-04-28T18:12:17.745Z,91.60
2023-04-28T18:14:47.362Z,91.60
2023-04-28T18:17:15.524Z,91.60
2023-04-28T18:19:43.411Z,92.40
2023-04-28T18:22:11.672Z,91.50
2023-04-28T18:24:39.837Z,91.50
2023-04-28T18:27:07.750Z,91.40
2023-04-28T18:29:35.551Z,91.40
2023-04-28T18:32:04.812Z,91.40
2023-04-28T18:34:32.671Z,91.30
2023-04-28T18:37:00.486Z,91.20
2023-04-28T18:39:28.361Z,91.20
2023-04-28T18:41:56.196Z,91.20
2023-04-28T18:44:24.216Z,91.10
2023-04-28T18:46:52.504Z,91.30
2023-04-28T18:49:22.679Z,91.50
2023-04-28T18:51:50.673Z,91.60
2023-04-28T18:54:18.585Z,91.20
2023-04-28T18:56:47.926Z,91.10
2023-04-28T18:59:16.097Z,91.00
2023-04-28T19:01:44.263Z,91.00
2023-04-28T19:04:12.308Z,91.10
2023-04-28T19:06:41.521Z,91.10
2023-04-28T19:09:09.392Z,91.20
2023-04-28T19:11:37.194Z,91.10
2023-04-28T19:14:05.308Z,91.10
2023-04-28T19:16:33.632Z,91.10
2023-04-28T19:19:01.646Z,91.00
2023-04-28T19:21:30.030Z,91.00
2023-04-28T19:23:59.152Z,91.10
2023-04-28T19:26:27.052Z,91.10
2023-04-28T19:28:54.860Z,92.10
2023-04-28T19:31:22.705Z,91.20
2023-04-28T19:33:50.712Z,91.10
2023-04-28T19:36:18.676Z,90.40
2023-04-28T19:38:46.497Z,91.40
2023-04-28T19:41:15.767Z,90.90
2023-04-28T19:43:44.584Z,91.00
2023-04-28T19:46:12.927Z,91.20
2023-04-28T19:48:41.551Z,91.20
2023-04-28T19:51:09.460Z,91.10
2023-04-28T19:53:40.390Z,91.00
2023-04-28T19:56:10.009Z,90.90
2023-04-28T19:58:39.841Z,91.00
2023-04-28T20:01:08.232Z,90.90
2023-04-28T20:03:36.554Z,90.90
2023-04-28T20:06:04.791Z,90.90
2023-04-28T20:08:32.659Z,90.90
2023-04-28T20:11:00.452Z,90.90
2023-04-28T20:13:28.568Z,90.90
2023-04-28T20:15:57.798Z,90.90
2023-04-28T20:18:25.815Z,90.90
2023-04-28T20:20:54.158Z,90.70
2023-04-28T20:23:21.991Z,91.10
2023-04-28T20:25:50.388Z,90.70
2023-04-28T20:28:18.219Z,90.60
2023-04-28T20:30:46.282Z,90.70
2023-04-28T20:33:16.069Z,90.80
2023-04-28T20:35:44.594Z,90.90
2023-04-28T20:38:15.955Z,90.80
2023-04-28T20:40:44.754Z,90.60
2023-04-28T20:43:12.661Z,90.80
2023-04-28T20:45:41.903Z,90.80
2023-04-28T20:48:09.756Z,90.70
2023-04-28T20:50:41.052Z,91.10
2023-04-28T20:53:09.095Z,90.60
2023-04-28T20:55:36.891Z,90.60
2023-04-28T20:58:04.765Z,90.60
2023-04-28T21:00:33.679Z,90.60
2023-04-28T21:03:04.426Z,90.50
2023-04-28T21:05:32.883Z,90.50
2023-04-28T21:08:02.145Z,90.50
2023-04-28T21:10:29.956Z,90.50
2023-04-28T21:12:57.801Z,90.50
2023-04-28T21:15:26.133Z,90.50
2023-04-28T21:17:53.951Z,90.60
2023-04-28T21:20:22.199Z,90.70
2023-04-28T21:22:50.827Z,90.60
2023-04-28T21:25:20.322Z,90.50
2023-04-28T21:27:48.670Z,90.60
2023-04-28T21:30:16.685Z,90.70
2023-04-28T21:32:44.857Z,90.50
2023-04-28T21:35:13.682Z,90.50
2023-04-28T21:37:41.679Z,90.50
2023-04-28T21:40:10.508Z,90.50
2023-04-28T21:42:39.626Z,90.60
2023-04-28T21:45:09.479Z,90.60
2023-04-28T21:47:38.046Z,90.70
2023-04-28T21:50:07.079Z,90.60
2023-04-28T21:52:35.000Z,90.60
2023-04-28T21:55:02.822Z,90.30
2023-04-28T21:57:30.602Z,90.40
2023-04-28T22:00:00.279Z,90.30
2023-04-28T22:02:28.943Z,90.30
2023-04-28T22:04:57.013Z,90.20
2023-04-28T22:07:25.647Z,90.20
2023-04-28T22:09:53.564Z,90.30
2023-04-28T22:12:21.326Z,90.10
2023-04-28T22:14:49.482Z,90.10
2023-04-28T22:17:18.739Z,90.00
2023-04-28T22:19:46.564Z,90.10
2023-04-28T22:22:14.841Z,90.10
2023-04-28T22:24:42.585Z,90.00
2023-04-28T22:27:10.498Z,89.90
2023-04-28T22:29:38.333Z,89.80
2023-04-28T22:32:08.294Z,89.70
2023-04-28T22:34:37.654Z,90.00
2023-04-28T22:37:05.548Z,89.90
2023-04-28T22:39:33.304Z,89.60
2023-04-28T22:42:01.082Z,89.90
2023-04-28T22:44:28.930Z,89.80
2023-04-28T22:46:56.809Z,89.80
2023-04-28T22:49:28.523Z,89.60
2023-04-28T22:51:58.070Z,89.70
2023-04-28T22:54:25.902Z,89.70
2023-04-28T22:56:53.753Z,89.60
2023-04-28T22:59:22.138Z,89.50
2023-04-28T23:01:50.605Z,89.60
2023-04-28T23:04:20.304Z,89.50
2023-04-28T23:06:48.783Z,89.90
2023-04-28T23:09:17.982Z,89.70
2023-04-28T23:11:45.936Z,89.90
2023-04-28T23:14:13.871Z,89.60
2023-04-28T23:16:42.056Z,89.90
2023-04-28T23:19:09.842Z,89.90
2023-04-28T23:21:37.953Z,89.70
2023-04-28T23:24:07.429Z,89.80
2023-04-28T23:26:36.676Z,89.80
2023-04-28T23:29:04.425Z,90.00
2023-04-28T23:31:32.641Z,89.90
2023-04-28T23:34:00.586Z,90.00
2023-04-28T23:36:28.726Z,90.00
2023-04-28T23:38:56.568Z,90.00
2023-04-28T23:41:24.650Z,89.90
2023-04-28T23:43:53.864Z,90.00
2023-04-28T23:46:21.938Z,90.10
2023-04-28T23:48:50.488Z,90.40
2023-04-28T23:51:18.376Z,90.00
2023-04-28T23:53:46.314Z,90.10
2023-04-28T23:56:14.076Z,90.20
2023-04-28T23:58:42.445Z,90.30
